createdAt,value
2018-03-24T00:01:17.513Z,99977.86
2018-03-24T00:03:43.549Z,99976.61
2018-03-24T00:06:09.558Z,99978.77
2018-03-24T00:08:35.582Z,99976.13
2018-03-24T00:11:01.689Z,99977.13
2018-03-24T00:13:27.719Z,99974.55
2018-03-24T00:16:00.830Z,99968.56
2018-03-24T00:18:26.923Z,99978.55
2018-03-24T00:20:53.776Z,99972.34
2018-03-24T00:23:19.862Z,99979.66
2018-03-24T00:25:45.862Z,99968.78
2018-03-24T00:28:11.939Z,99977.99
2018-03-24T00:30:37.926Z,99980.16
2018-03-24T00:33:03.962Z,99974.21
2018-03-24T00:35:30.004Z,99977.38
2018-03-24T00:37:56.089Z,99976.98
2018-03-24T00:40:22.134Z,99979.84
2018-03-24T00:42:48.174Z,99980.00
2018-03-24T00:45:14.291Z,99977.64
2018-03-24T00:47:40.465Z,99980.59
2018-03-24T00:50:06.479Z,99977.25
2018-03-24T00:52:32.509Z,99981.45
2018-03-24T00:54:58.681Z,99983.41
2018-03-24T00:57:25.077Z,99988.41
2018-03-24T00:59:51.138Z,99981.78
2018-03-24T01:02:17.309Z,99984.45
2018-03-24T01:04:43.313Z,99988.56
2018-03-24T01:07:09.413Z,99980.97
2018-03-24T01:09:35.533Z,99978.99
2018-03-24T01:12:01.560Z,99976.69
2018-03-24T01:14:27.597Z,99983.42
2018-03-24T01:16:53.595Z,99984.34
2018-03-24T01:19:19.627Z,99980.59
2018-03-24T01:21:45.648Z,99977.73
2018-03-24T01:24:11.673Z,99975.09
2018-03-24T01:26:37.671Z,99973.20
2018-03-24T01:29:03.717Z,99970.13
2018-03-24T01:31:29.711Z,99968.73
2018-03-24T01:33:56.271Z,99968.95
2018-03-24T01:36:22.509Z,99966.80
2018-03-24T01:38:48.734Z,99973.20
2018-03-24T01:41:14.758Z,99963.30
2018-03-24T01:43:40.759Z,99966.84
2018-03-24T01:46:07.852Z,99958.70
2018-03-24T01:48:33.949Z,99966.94
2018-03-24T01:50:59.977Z,99958.79
2018-03-24T01:53:38.366Z,99956.84
2018-03-24T01:56:04.561Z,99959.20
2018-03-24T01:58:30.633Z,99954.52
2018-03-24T02:00:56.699Z,99950.27
2018-03-24T02:03:22.879Z,99952.36
2018-03-24T02:05:48.992Z,99953.13
2018-03-24T02:08:15.031Z,99949.30
2018-03-24T02:10:41.098Z,99951.73
2018-03-24T02:13:07.144Z,99945.52
2018-03-24T02:15:33.178Z,99941.61
2018-03-24T02:17:59.399Z,99947.73
2018-03-24T02:20:25.465Z,99952.00
2018-03-24T02:22:51.505Z,99939.90
2018-03-24T02:25:17.549Z,99949.05
2018-03-24T02:27:43.580Z,99948.00
2018-03-24T02:30:09.667Z,99942.86
2018-03-24T02:32:35.967Z,99941.59
2018-03-24T02:35:01.984Z,99956.73
2018-03-24T02:37:28.026Z,99953.54
2018-03-24T02:39:54.073Z,99949.00
2018-03-24T02:42:20.063Z,99942.72
2018-03-24T02:44:46.142Z,99945.22
2018-03-24T02:47:12.788Z,99948.92
2018-03-24T02:49:39.131Z,99946.82
2018-03-24T02:52:05.540Z,99948.07
2018-03-24T02:54:31.572Z,99948.83
2018-03-24T02:56:57.634Z,99942.28
2018-03-24T02:59:23.664Z,99944.31
2018-03-24T03:01:49.652Z,99945.98
2018-03-24T03:04:15.672Z,99941.03
2018-03-24T03:06:41.694Z,99941.25
2018-03-24T03:09:07.798Z,99942.28
2018-03-24T03:11:33.874Z,99947.02
2018-03-24T03:13:59.904Z,99944.98
2018-03-24T03:16:25.941Z,99944.86
2018-03-24T03:18:51.927Z,99944.17
2018-03-24T03:21:18.004Z,99944.17
2018-03-24T03:23:44.045Z,99939.99
2018-03-24T03:26:10.083Z,99957.30
2018-03-24T03:28:36.977Z,99956.37
2018-03-24T03:34:03.313Z,99953.10
2018-03-24T03:36:29.354Z,99943.75
2018-03-24T03:38:55.430Z,99947.78
2018-03-24T03:41:21.458Z,99951.43
2018-03-24T03:43:47.458Z,99957.02
2018-03-24T03:46:13.559Z,99962.47
2018-03-24T03:48:39.596Z,99956.90
2018-03-24T03:51:05.635Z,99957.66
2018-03-24T03:53:31.668Z,99961.30
2018-03-24T03:55:57.669Z,99964.09
2018-03-24T03:58:23.696Z,99958.98
2018-03-24T04:00:49.724Z,99953.98
2018-03-24T04:03:15.741Z,99958.30
2018-03-24T04:05:41.809Z,99958.42
2018-03-24T04:08:07.893Z,99958.30
2018-03-24T04:10:33.911Z,99956.97
2018-03-24T04:12:59.975Z,99959.48
2018-03-24T04:15:26.064Z,99960.44
2018-03-24T04:17:52.173Z,99960.44
2018-03-24T04:20:18.210Z,99961.78
2018-03-24T04:22:44.244Z,99954.25
2018-03-24T04:25:10.886Z,99957.59
2018-03-24T04:27:36.995Z,99954.03
2018-03-24T04:30:03.822Z,99952.70
2018-03-24T04:32:29.902Z,99956.53
2018-03-24T04:34:55.977Z,99958.84
2018-03-24T04:37:22.018Z,99954.72
2018-03-24T04:39:48.168Z,99963.66
2018-03-24T04:42:14.182Z,99964.83
2018-03-24T04:44:40.222Z,99973.13
2018-03-24T04:47:06.253Z,99972.98
2018-03-24T04:49:33.025Z,99967.27
2018-03-24T04:51:59.192Z,99972.56
2018-03-24T04:54:25.209Z,99972.91
2018-03-24T04:56:51.238Z,99977.45
2018-03-24T04:59:17.557Z,99984.07
2018-03-24T05:01:43.638Z,99982.80
2018-03-24T05:04:09.656Z,99978.20
2018-03-24T05:06:35.660Z,99975.70
2018-03-24T05:09:01.693Z,99970.11
2018-03-24T05:11:28.317Z,99971.16
2018-03-24T05:13:54.372Z,99974.80
2018-03-24T05:16:20.421Z,99973.62
2018-03-24T05:18:46.728Z,99968.52
2018-03-24T05:21:13.079Z,99979.19
2018-03-24T05:23:39.191Z,99976.19
2018-03-24T05:26:05.240Z,99976.47
2018-03-24T05:28:31.236Z,99974.50
2018-03-24T05:30:57.313Z,99982.53
2018-03-24T05:33:23.435Z,99982.41
2018-03-24T05:35:49.473Z,99984.52
2018-03-24T05:38:15.467Z,99986.87
2018-03-24T05:40:41.854Z,99986.80
2018-03-24T05:43:07.832Z,99983.53
2018-03-24T05:45:33.848Z,99995.38
2018-03-24T05:47:59.873Z,99994.82
2018-03-24T05:50:25.857Z,100001.30
2018-03-24T05:52:52.358Z,99994.23
2018-03-24T05:55:18.369Z,100001.77
2018-03-24T05:57:44.521Z,100006.45
2018-03-24T06:00:10.819Z,100002.34
2018-03-24T06:02:36.969Z,100007.69
2018-03-24T06:05:03.130Z,100001.97
2018-03-24T06:07:29.169Z,100010.20
2018-03-24T06:09:55.157Z,100011.27
2018-03-24T06:12:21.254Z,100018.44
2018-03-24T06:14:47.302Z,100016.89
2018-03-24T06:17:13.470Z,100027.28
2018-03-24T06:19:40.174Z,100021.84
2018-03-24T06:22:06.272Z,100022.89
2018-03-24T06:24:39.632Z,100024.07
2018-03-24T06:27:06.769Z,100023.92
2018-03-24T06:29:32.914Z,100023.70
2018-03-24T06:31:58.995Z,100032.89
2018-03-24T06:34:25.196Z,100030.86
2018-03-24T06:36:51.265Z,100036.02
2018-03-24T06:39:17.337Z,100030.77
2018-03-24T06:41:43.342Z,100037.71
2018-03-24T06:44:09.375Z,100037.61
2018-03-24T06:46:35.384Z,100035.42
2018-03-24T06:49:01.463Z,100036.19
2018-03-24T06:51:27.915Z,100038.98
2018-03-24T06:53:53.925Z,100038.89
2018-03-24T06:56:19.949Z,100036.77
2018-03-24T06:58:46.137Z,100039.47
2018-03-24T07:01:12.347Z,100045.11
2018-03-24T07:03:38.399Z,100051.23
2018-03-24T07:06:04.514Z,100050.13
2018-03-24T07:08:31.164Z,100051.05
2018-03-24T07:10:57.455Z,100050.59
2018-03-24T07:13:23.820Z,100049.66
2018-03-24T07:15:49.901Z,100051.93
2018-03-24T07:18:15.962Z,100052.81
2018-03-24T07:20:41.971Z,100064.80
2018-03-24T07:23:08.281Z,100058.84
2018-03-24T07:25:34.591Z,100063.67
2018-03-24T07:28:00.680Z,100069.28
2018-03-24T07:30:26.681Z,100073.45
2018-03-24T07:32:52.872Z,100071.98
2018-03-24T07:35:19.026Z,100069.59
2018-03-24T07:37:45.078Z,100078.13
2018-03-24T07:40:11.082Z,100074.75
2018-03-24T07:42:37.278Z,100077.74
2018-03-24T07:45:03.391Z,100074.44
2018-03-24T07:47:29.420Z,100074.09
2018-03-24T07:49:55.429Z,100079.25
2018-03-24T07:52:21.473Z,100087.83
2018-03-24T07:54:47.566Z,100083.31
2018-03-24T07:57:13.611Z,100082.86
2018-03-24T07:59:45.755Z,100083.50
2018-03-24T08:02:11.810Z,100090.41
2018-03-24T08:04:38.475Z,100092.45
2018-03-24T08:07:04.675Z,100092.44
2018-03-24T08:09:30.922Z,100091.99
2018-03-24T08:11:57.005Z,100104.09
2018-03-24T08:14:23.115Z,100109.78
2018-03-24T08:16:49.984Z,100110.64
2018-03-24T08:19:16.065Z,100110.17
2018-03-24T08:21:42.097Z,100113.86
2018-03-24T08:24:08.136Z,100116.62
2018-03-24T08:26:34.140Z,100120.09
2018-03-24T08:29:00.231Z,100119.17
2018-03-24T08:31:26.312Z,100119.61
2018-03-24T08:33:52.459Z,100122.06
2018-03-24T08:36:18.468Z,100123.98
2018-03-24T08:38:44.605Z,100123.09
2018-03-24T08:41:10.702Z,100120.55
2018-03-24T08:43:36.714Z,100116.80
2018-03-24T08:46:03.342Z,100121.50
2018-03-24T08:48:29.361Z,100124.03
2018-03-24T08:50:55.430Z,100120.34
2018-03-24T08:53:21.473Z,100129.77
2018-03-24T08:55:47.474Z,100127.39
2018-03-24T08:58:13.551Z,100134.03
2018-03-24T09:00:40.002Z,100130.72
2018-03-24T09:03:06.544Z,100140.45
2018-03-24T09:05:32.700Z,100129.36
2018-03-24T09:07:59.107Z,100134.86
2018-03-24T09:10:25.128Z,100138.23
2018-03-24T09:12:51.167Z,100136.31
2018-03-24T09:15:17.262Z,100141.39
2018-03-24T09:17:43.302Z,100145.73
2018-03-24T09:20:09.719Z,100133.86
2018-03-24T09:22:35.960Z,100147.31
2018-03-24T09:25:02.059Z,100144.40
2018-03-24T09:27:28.110Z,100148.55
2018-03-24T09:29:54.183Z,100151.21
2018-03-24T09:32:20.261Z,100145.73
2018-03-24T09:34:46.477Z,100148.41
2018-03-24T09:37:12.668Z,100149.56
2018-03-24T09:39:38.698Z,100158.31
2018-03-24T09:42:05.294Z,100162.39
2018-03-24T09:44:31.304Z,100162.98
2018-03-24T09:46:57.358Z,100164.34
2018-03-24T09:49:23.792Z,100160.47
2018-03-24T09:51:49.866Z,100169.36
2018-03-24T09:54:16.014Z,100166.93
2018-03-24T09:56:42.013Z,100168.05
2018-03-24T09:59:08.642Z,100164.31
2018-03-24T10:01:34.731Z,100163.25
2018-03-24T10:04:01.399Z,100159.14
2018-03-24T10:06:27.486Z,100163.31
2018-03-24T10:08:53.524Z,100161.77
2018-03-24T10:11:19.630Z,100162.10
2018-03-24T10:13:45.696Z,100163.62
2018-03-24T10:16:11.687Z,100162.74
2018-03-24T10:18:37.731Z,100154.97
2018-03-24T10:24:25.660Z,100155.67
2018-03-24T10:26:51.920Z,100156.28
2018-03-24T10:29:18.050Z,100156.63
2018-03-24T10:31:44.037Z,100157.11
2018-03-24T10:34:10.106Z,100154.84
2018-03-24T10:36:36.135Z,100153.66
2018-03-24T10:39:02.190Z,100155.26
2018-03-24T10:41:28.278Z,100157.41
2018-03-24T10:43:54.292Z,100156.97
2018-03-24T10:46:20.310Z,100154.53
2018-03-24T10:48:46.350Z,100155.95
2018-03-24T10:51:12.382Z,100156.86
2018-03-24T10:53:38.511Z,100159.59
2018-03-24T10:56:04.686Z,100153.83
2018-03-24T10:58:30.728Z,100153.81
2018-03-24T11:01:02.855Z,100158.84
2018-03-24T11:03:29.014Z,100155.72
2018-03-24T11:05:55.208Z,100146.95
2018-03-24T11:08:21.352Z,100154.19
2018-03-24T11:10:47.391Z,100156.14
2018-03-24T11:13:13.459Z,100154.86
2018-03-24T11:15:39.461Z,100152.80
2018-03-24T11:18:05.556Z,100147.20
2018-03-24T11:20:31.611Z,100142.72
2018-03-24T11:22:57.675Z,100141.59
2018-03-24T11:25:23.726Z,100145.20
2018-03-24T11:27:49.791Z,100141.24
2018-03-24T11:30:15.903Z,100143.17
2018-03-24T11:32:41.952Z,100151.95
2018-03-24T11:35:08.086Z,100148.27
2018-03-24T11:37:34.121Z,100150.55
2018-03-24T11:40:00.188Z,100151.39
2018-03-24T11:42:26.204Z,100152.18
2018-03-24T11:44:52.336Z,100157.16
2018-03-24T11:47:18.357Z,100152.70
2018-03-24T11:49:45.241Z,100152.80
2018-03-24T11:52:11.257Z,100155.27
2018-03-24T11:54:44.070Z,100150.00
2018-03-24T11:57:10.181Z,100151.75
2018-03-24T11:59:36.748Z,100150.30
2018-03-24T12:02:03.014Z,100151.74
2018-03-24T12:04:29.187Z,100156.13
2018-03-24T12:06:55.362Z,100145.43
2018-03-24T12:09:21.418Z,100148.70
2018-03-24T12:11:47.454Z,100150.95
2018-03-24T12:14:13.577Z,100151.23
2018-03-24T12:16:39.602Z,100147.11
2018-03-24T12:19:05.624Z,100151.08
2018-03-24T12:21:31.738Z,100154.07
2018-03-24T12:23:57.751Z,100153.00
2018-03-24T12:26:23.786Z,100155.09
2018-03-24T12:28:50.003Z,100151.34
2018-03-24T12:31:16.127Z,100154.23
2018-03-24T12:33:42.150Z,100148.20
2018-03-24T12:36:08.167Z,100151.81
2018-03-24T12:38:34.260Z,100147.84
2018-03-24T12:41:00.270Z,100148.02
2018-03-24T12:43:26.289Z,100151.53
2018-03-24T12:45:52.328Z,100148.86
2018-03-24T12:48:18.419Z,100148.05
2018-03-24T12:50:44.609Z,100153.43
2018-03-24T12:53:10.857Z,100140.60
2018-03-24T12:55:36.964Z,100138.30
2018-03-24T12:58:03.011Z,100136.45
2018-03-24T13:00:29.251Z,100130.36
2018-03-24T13:02:55.470Z,100133.52
2018-03-24T13:05:21.591Z,100130.98
2018-03-24T13:07:47.734Z,100127.86
2018-03-24T13:10:13.823Z,100129.84
2018-03-24T13:12:39.846Z,100128.61
2018-03-24T13:15:05.902Z,100125.77
2018-03-24T13:17:31.926Z,100126.75
2018-03-24T13:19:58.003Z,100130.91
2018-03-24T13:22:24.097Z,100142.37
2018-03-24T13:24:50.902Z,100151.16
2018-03-24T13:27:17.380Z,100154.95
2018-03-24T13:29:43.494Z,100156.67
2018-03-24T13:32:10.957Z,100179.39
2018-03-24T13:34:37.104Z,100167.66
2018-03-24T13:37:03.357Z,100199.50
2018-03-24T13:39:29.412Z,100202.11
2018-03-24T13:41:55.446Z,100167.27
2018-03-24T13:44:21.522Z,100220.58
2018-03-24T13:46:47.580Z,100230.56
2018-03-24T13:49:13.619Z,100249.50
2018-03-24T13:51:39.655Z,100176.34
2018-03-24T13:54:05.736Z,100173.56
2018-03-24T13:56:31.783Z,100245.29
2018-03-24T13:58:57.803Z,100232.34
2018-03-24T14:01:23.834Z,100284.95
2018-03-24T14:03:49.847Z,100286.57
2018-03-24T14:06:16.141Z,100282.38
2018-03-24T14:08:42.291Z,100187.26
2018-03-24T14:11:08.386Z,100186.16
2018-03-24T14:13:34.451Z,100154.80
2018-03-24T14:16:00.631Z,100148.28
2018-03-24T14:18:26.699Z,100159.82
2018-03-24T14:20:52.852Z,100136.61
2018-03-24T14:23:19.444Z,100136.38
2018-03-24T14:25:45.866Z,100131.22
2018-03-24T14:28:11.962Z,100128.50
2018-03-24T14:30:38.004Z,100130.11
2018-03-24T14:33:04.032Z,100129.48
2018-03-24T14:35:30.081Z,100116.94
2018-03-24T14:37:56.178Z,100135.50
2018-03-24T14:40:22.216Z,100130.39
2018-03-24T14:42:48.264Z,100128.61
2018-03-24T14:45:14.270Z,100125.64
2018-03-24T14:47:40.306Z,100140.56
2018-03-24T14:50:06.797Z,100131.27
2018-03-24T14:52:32.989Z,100130.30
2018-03-24T14:54:59.191Z,100130.51
2018-03-24T14:57:25.335Z,100129.27
2018-03-24T14:59:51.473Z,100131.12
2018-03-24T15:02:17.498Z,100136.87
2018-03-24T15:04:43.583Z,100133.55
2018-03-24T15:07:09.732Z,100136.50
2018-03-24T15:09:35.793Z,100141.50
2018-03-24T15:12:01.917Z,100140.31
2018-03-24T15:14:27.905Z,100148.86
2018-03-24T15:16:54.039Z,100144.02
2018-03-24T15:19:20.115Z,100143.84
2018-03-24T15:21:46.428Z,100147.20
2018-03-24T15:24:12.527Z,100141.20
2018-03-24T15:26:38.750Z,100144.86
2018-03-24T15:29:16.914Z,100144.69
2018-03-24T15:31:55.329Z,100144.42
2018-03-24T15:34:33.681Z,100142.02
2018-03-24T15:36:59.744Z,100141.42
2018-03-24T15:39:25.777Z,100143.78
2018-03-24T15:41:51.836Z,100143.94
2018-03-24T15:44:17.886Z,100141.36
2018-03-24T15:46:43.934Z,100144.58
2018-03-24T15:49:09.995Z,100144.92
2018-03-24T15:51:36.033Z,100147.55
2018-03-24T15:54:02.417Z,100143.42
2018-03-24T15:56:28.454Z,100145.64
2018-03-24T15:59:01.554Z,100145.83
2018-03-24T16:01:27.583Z,100201.16
2018-03-24T16:03:53.610Z,100186.45
2018-03-24T16:06:19.769Z,100157.62
2018-03-24T16:08:45.765Z,100161.98
2018-03-24T16:11:12.407Z,100142.34
2018-03-24T16:13:38.498Z,100138.91
2018-03-24T16:16:04.652Z,100139.51
2018-03-24T16:18:30.852Z,100139.42
2018-03-24T16:20:57.123Z,100142.32
2018-03-24T16:23:23.143Z,100140.36
2018-03-24T16:25:49.177Z,100138.13
2018-03-24T16:28:16.238Z,100139.44
2018-03-24T16:30:42.294Z,100143.90
2018-03-24T16:33:08.732Z,100145.45
2018-03-24T16:35:34.990Z,100146.84
2018-03-24T16:38:01.167Z,100142.55
2018-03-24T16:40:27.200Z,100146.77
2018-03-24T16:42:53.642Z,100154.11
2018-03-24T16:45:20.320Z,100149.00
2018-03-24T16:47:46.371Z,100154.44
2018-03-24T16:50:12.583Z,100154.38
2018-03-24T16:52:38.601Z,100155.72
2018-03-24T16:55:04.641Z,100155.07
2018-03-24T16:57:30.713Z,100166.08
2018-03-24T16:59:57.057Z,100161.95
2018-03-24T17:02:23.224Z,100167.19
2018-03-24T17:04:49.326Z,100174.03
2018-03-24T17:07:15.447Z,100172.61
2018-03-24T17:09:41.671Z,100175.87
2018-03-24T17:12:07.970Z,100168.30
2018-03-24T17:14:34.792Z,100175.47
2018-03-24T17:17:01.059Z,100181.19
2018-03-24T17:19:27.352Z,100180.25
2018-03-24T17:21:53.514Z,100183.92
2018-03-24T17:24:19.562Z,100179.21
2018-03-24T17:26:45.694Z,100191.13
2018-03-24T17:29:11.974Z,100186.70
2018-03-24T17:31:38.822Z,100189.97
2018-03-24T17:34:05.125Z,100192.78
2018-03-24T17:36:31.441Z,100197.60
2018-03-24T17:39:04.583Z,100208.98
2018-03-24T17:41:30.664Z,100214.68
2018-03-24T17:43:56.983Z,100216.04
2018-03-24T17:46:23.199Z,100212.19
2018-03-24T17:48:49.353Z,100213.73
2018-03-24T17:51:15.477Z,100218.52
2018-03-24T17:53:41.589Z,100216.09
2018-03-24T17:56:14.585Z,100212.20
2018-03-24T17:58:40.804Z,100213.91
2018-03-24T18:01:07.030Z,100220.80
2018-03-24T18:03:33.316Z,100214.08
2018-03-24T18:05:59.486Z,100216.73
2018-03-24T18:08:25.535Z,100223.02
2018-03-24T18:10:51.753Z,100219.19
2018-03-24T18:13:17.884Z,100217.97
2018-03-24T18:15:44.012Z,100225.91
2018-03-24T18:18:10.272Z,100228.84
2018-03-24T18:20:36.409Z,100232.06
2018-03-24T18:23:02.550Z,100239.91
2018-03-24T18:25:28.927Z,100243.58
2018-03-24T18:27:55.174Z,100240.16
2018-03-24T18:30:21.358Z,100248.73
2018-03-24T18:32:47.597Z,100245.24
2018-03-24T18:35:13.798Z,100237.42
2018-03-24T18:37:40.052Z,100243.00
2018-03-24T18:40:06.284Z,100242.19
2018-03-24T18:42:32.509Z,100240.22
2018-03-24T18:44:58.649Z,100248.27
2018-03-24T18:47:24.794Z,100245.06
2018-03-24T18:49:50.969Z,100250.41
2018-03-24T18:52:17.075Z,100256.77
2018-03-24T18:54:43.261Z,100256.36
2018-03-24T18:57:09.419Z,100256.65
2018-03-24T18:59:35.589Z,100254.25
2018-03-24T19:02:01.829Z,100249.52
2018-03-24T19:04:28.553Z,100253.86
2018-03-24T19:06:54.684Z,100260.41
2018-03-24T19:09:20.846Z,100265.72
2018-03-24T19:11:46.932Z,100269.22
2018-03-24T19:14:13.370Z,100274.63
2018-03-24T19:16:39.563Z,100280.08
2018-03-24T19:19:05.640Z,100276.17
2018-03-24T19:21:31.713Z,100274.70
2018-03-24T19:23:57.767Z,100278.69
2018-03-24T19:26:23.846Z,100281.19
2018-03-24T19:28:50.068Z,100284.97
2018-03-24T19:31:16.239Z,100293.63
2018-03-24T19:33:42.498Z,100293.63
2018-03-24T19:36:08.655Z,100289.19
2018-03-24T19:38:34.883Z,100293.64
2018-03-24T19:41:01.086Z,100295.38
2018-03-24T19:43:27.259Z,100298.66
2018-03-24T19:45:53.419Z,100303.75
2018-03-24T19:48:19.557Z,100306.61
2018-03-24T19:50:45.823Z,100303.54
2018-03-24T19:53:11.970Z,100302.48
2018-03-24T19:55:38.089Z,100309.80
2018-03-24T19:58:04.220Z,100311.56
2018-03-24T20:00:30.427Z,100312.74
2018-03-24T20:02:56.665Z,100306.17
2018-03-24T20:05:23.133Z,100313.77
2018-03-24T20:07:49.378Z,100314.06
2018-03-24T20:10:15.550Z,100310.43
2018-03-24T20:12:41.745Z,100312.16
2018-03-24T20:15:07.937Z,100312.80
2018-03-24T20:17:34.149Z,100312.08
2018-03-24T20:20:00.326Z,100315.80
2018-03-24T20:22:26.546Z,100319.61
2018-03-24T20:24:53.052Z,100321.13
2018-03-24T20:27:19.323Z,100315.41
2018-03-24T20:29:45.573Z,100316.46
2018-03-24T20:32:11.778Z,100319.58
2018-03-24T20:34:38.010Z,100326.13
2018-03-24T20:37:04.239Z,100324.32
2018-03-24T20:39:31.326Z,100329.59
2018-03-24T20:41:57.588Z,100334.98
2018-03-24T20:44:24.832Z,100333.26
2018-03-24T20:46:51.302Z,100328.56
2018-03-24T20:49:17.901Z,100329.03
2018-03-24T20:51:44.266Z,100330.22
2018-03-24T20:54:10.637Z,100332.73
2018-03-24T20:56:37.174Z,100337.52
2018-03-24T20:59:03.537Z,100336.97
2018-03-24T21:01:29.593Z,100340.23
2018-03-24T21:03:55.763Z,100336.91
2018-03-24T21:06:21.906Z,100347.77
2018-03-24T21:08:48.017Z,100343.41
2018-03-24T21:11:14.164Z,100343.57
2018-03-24T21:13:40.239Z,100349.17
2018-03-24T21:16:06.473Z,100345.49
2018-03-24T21:18:32.762Z,100341.92
2018-03-24T21:20:58.901Z,100346.80
2018-03-24T21:23:25.089Z,100349.02
2018-03-24T21:25:51.314Z,100351.38
2018-03-24T21:28:17.557Z,100350.09
2018-03-24T21:30:43.681Z,100346.03
2018-03-24T21:33:09.801Z,100353.55
2018-03-24T21:35:35.958Z,100357.56
2018-03-24T21:38:02.094Z,100353.62
2018-03-24T21:40:28.253Z,100357.62
2018-03-24T21:42:54.322Z,100353.62
2018-03-24T21:45:20.422Z,100349.40
2018-03-24T21:47:46.540Z,100354.40
2018-03-24T21:50:12.600Z,100358.38
2018-03-24T21:52:38.656Z,100358.86
2018-03-24T21:55:04.758Z,100350.20
2018-03-24T21:57:37.913Z,100354.80
2018-03-24T22:00:03.991Z,100351.44
2018-03-24T22:02:30.030Z,100354.98
2018-03-24T22:04:56.148Z,100351.08
2018-03-24T22:07:22.193Z,100351.92
2018-03-24T22:09:48.227Z,100362.73
2018-03-24T22:12:14.242Z,100352.56
2018-03-24T22:14:40.275Z,100356.37
2018-03-24T22:17:06.950Z,100351.27
2018-03-24T22:19:33.179Z,100355.11
2018-03-24T22:21:59.270Z,100347.33
2018-03-24T22:24:25.326Z,100354.05
2018-03-24T22:26:51.485Z,100350.88
2018-03-24T22:29:17.648Z,100351.66
2018-03-24T22:31:43.696Z,100349.84
2018-03-24T22:34:09.774Z,100347.14
2018-03-24T22:36:35.828Z,100342.39
2018-03-24T22:39:01.958Z,100333.98
2018-03-24T22:41:28.019Z,100335.66
2018-03-24T22:43:54.056Z,100336.69
2018-03-24T22:46:20.190Z,100330.98
2018-03-24T22:48:46.211Z,100331.04
2018-03-24T22:51:12.266Z,100332.91
2018-03-24T22:53:38.321Z,100329.66
2018-03-24T22:56:04.357Z,100325.81
2018-03-24T22:58:30.400Z,100328.56
2018-03-24T23:00:56.470Z,100325.39
2018-03-24T23:03:22.514Z,100324.69
2018-03-24T23:05:48.594Z,100325.30
2018-03-24T23:08:14.601Z,100319.94
2018-03-24T23:10:40.636Z,100322.36
2018-03-24T23:13:07.123Z,100321.58
2018-03-24T23:15:33.300Z,100323.64
2018-03-24T23:17:59.384Z,100321.87
2018-03-24T23:20:25.518Z,100327.14
2018-03-24T23:22:51.570Z,100318.66
2018-03-24T23:25:17.778Z,100315.30
2018-03-24T23:27:43.917Z,100310.79
2018-03-24T23:30:09.941Z,100312.78
2018-03-24T23:32:35.955Z,100315.05
2018-03-24T23:35:01.966Z,100318.23
2018-03-24T23:37:28.069Z,100328.34
2018-03-24T23:39:54.295Z,100323.80
2018-03-24T23:42:20.380Z,100330.17
2018-03-24T23:44:46.570Z,100327.06
2018-03-24T23:47:12.886Z,100325.64
2018-03-24T23:49:38.917Z,100328.77
2018-03-24T23:52:05.077Z,100326.91
2018-03-24T23:54:31.229Z,100323.71
2018-03-24T23:56:57.363Z,100327.33
2018-03-24T23:59:23.467Z,100324.34
